Eaton Rapids, MI (48827)

4:43 AM EST on December 06, 2016 (GMT -0500)
Eaton Rapids | | Change Station

Elev 899 ft 42.52 °N, 84.65 °W | Updated 1 minute ago

Mostly Cloudy
Mostly Cloudy
29.6 °F
Feels Like 30 °F
N
1.0
Wind Variable Wind from SE

Today
High -- | Low -- °F
--% Chance of Precip.
Yesterday
High -- | Low -- °F
Precip. -- in
Pressure 29.90 in
Visibility 5.0 miles
Clouds Mostly Cloudy 1100 ft
Mostly Cloudy 1400 ft
Windchill 30 °F
Dew Point 28 °F
Humidity 96%
Rainfall 0.00 in
Snow Depth Not available.
7:54 AM 5:05 PM
Waxing Crescent, 40% visible
METAR KFPK 060935Z AUTO 09006KT 5SM BR BKN011 BKN014 M01/M02 A2990 RMK AO2 T10101019
Pressure 29.90 in
Visibility 5.0 miles
Clouds Mostly Cloudy 1100 ft
Mostly Cloudy 1400 ft
Windchill 30 °F
Dew Point 28 °F
Humidity 96%
Rainfall 0.00 in
Snow Depth Not available.
7:54 AM 5:05 PM
Waxing Crescent, 40% visible
METAR KFPK 060935Z AUTO 09006KT 5SM BR BKN011 BKN014 M01/M02 A2990 RMK AO2 T10101019

10-Day Weather Forecast

Almanac

Astronomy

Dec. 06, 2016 Rise Set
Actual Time
Civil Twilight
Nautical Twilight
Astronomical Twilight
Moon
Length of Visible Light
Length of Day
Tomorrow will be .
, % of the Moon is Illuminated

Today's Extremes

State Highs State Lows

Community

WunderPhotos

Upload Photos

1,955,935 photos uploaded!

WunderBlog® & News

Nearby

Air Quality

  Air Quality AQ Index Pollutant
Not available.

Snow Depth

Station Depth Elevation

Earthquake Activity

City Distance Mag. Time & Date
Minimum magnitude displayed is 2.5.

Coastal Water Temperatures

Place Temperature

Stations

Nearby Weather Stations

Station Location Temp. Windchill Dew Point Humidity Wind Precip. Elev Updated Type
                   

Watches & Warnings

There are currently no watches in effect.